sensor_id;sensor_type;location;lat;lon;timestamp;P1;durP1;ratioP1;P2;durP2;ratioP2
75191;SDS011;63771;52.580;9.734;2023-06-14T00:02:05;3.10;;;2.50;;
75191;SDS011;63771;52.580;9.734;2023-06-14T00:06:58;2.77;;;2.50;;
75191;SDS011;63771;52.580;9.734;2023-06-14T00:09:24;2.67;;;2.33;;
75191;SDS011;63771;52.580;9.734;2023-06-14T00:11:49;2.83;;;2.22;;
75191;SDS011;63771;52.580;9.734;2023-06-14T00:14:15;4.03;;;2.47;;
75191;SDS011;63771;52.580;9.734;2023-06-14T00:16:40;3.87;;;2.57;;
75191;SDS011;63771;52.580;9.734;2023-06-14T00:19:07;5.30;;;2.78;;
75191;SDS011;63771;52.580;9.734;2023-06-14T00:21:36;3.30;;;2.55;;
75191;SDS011;63771;52.580;9.734;2023-06-14T00:24:03;6.97;;;3.03;;
75191;SDS011;63771;52.580;9.734;2023-06-14T00:26:29;3.88;;;2.38;;
75191;SDS011;63771;52.580;9.734;2023-06-14T00:28:54;2.55;;;2.15;;
75191;SDS011;63771;52.580;9.734;2023-06-14T00:31:21;5.93;;;2.67;;
75191;SDS011;63771;52.580;9.734;2023-06-14T00:33:47;2.50;;;2.30;;
75191;SDS011;63771;52.580;9.734;2023-06-14T00:36:12;2.90;;;2.70;;
75191;SDS011;63771;52.580;9.734;2023-06-14T00:38:38;3.33;;;3.03;;
75191;SDS011;63771;52.580;9.734;2023-06-14T00:41:03;2.67;;;2.47;;
75191;SDS011;63771;52.580;9.734;2023-06-14T00:43:29;3.35;;;2.70;;
75191;SDS011;63771;52.580;9.734;2023-06-14T00:45:54;3.40;;;2.55;;
75191;SDS011;63771;52.580;9.734;2023-06-14T00:48:20;2.60;;;2.50;;
75191;SDS011;63771;52.580;9.734;2023-06-14T00:50:45;3.17;;;2.45;;
75191;SDS011;63771;52.580;9.734;2023-06-14T00:53:13;4.10;;;2.13;;
75191;SDS011;63771;52.580;9.734;2023-06-14T00:55:40;4.43;;;2.97;;
75191;SDS011;63771;52.580;9.734;2023-06-14T00:58:05;3.85;;;2.40;;
75191;SDS011;63771;52.580;9.734;2023-06-14T01:00:31;3.17;;;2.45;;
75191;SDS011;63771;52.580;9.734;2023-06-14T01:02:56;3.90;;;2.40;;
75191;SDS011;63771;52.580;9.734;2023-06-14T01:05:24;2.40;;;2.30;;
75191;SDS011;63771;52.580;9.734;2023-06-14T01:15:37;3.42;;;2.28;;
75191;SDS011;63771;52.580;9.734;2023-06-14T01:18:03;2.67;;;2.47;;
75191;SDS011;63771;52.580;9.734;2023-06-14T01:20:30;5.32;;;2.75;;
75191;SDS011;63771;52.580;9.734;2023-06-14T01:22:57;2.60;;;2.40;;
75191;SDS011;63771;52.580;9.734;2023-06-14T01:25:24;4.03;;;2.35;;
75191;SDS011;63771;52.580;9.734;2023-06-14T01:27:50;5.22;;;3.42;;
75191;SDS011;63771;52.580;9.734;2023-06-14T01:30:27;2.55;;;2.35;;
75191;SDS011;63771;52.580;9.734;2023-06-14T01:35:21;6.00;;;2.63;;
75191;SDS011;63771;52.580;9.734;2023-06-14T01:37:48;2.60;;;2.28;;
75191;SDS011;63771;52.580;9.734;2023-06-14T01:40:14;5.05;;;2.50;;
75191;SDS011;63771;52.580;9.734;2023-06-14T01:42:40;2.83;;;2.63;;
75191;SDS011;63771;52.580;9.734;2023-06-14T01:45:07;2.97;;;2.70;;
75191;SDS011;63771;52.580;9.734;2023-06-14T01:47:34;3.75;;;2.38;;
75191;SDS011;63771;52.580;9.734;2023-06-14T01:50:01;4.15;;;2.80;;
75191;SDS011;63771;52.580;9.734;2023-06-14T01:52:28;4.55;;;2.50;;
75191;SDS011;63771;52.580;9.734;2023-06-14T01:54:53;3.08;;;2.53;;
75191;SDS011;63771;52.580;9.734;2023-06-14T01:57:19;5.68;;;2.10;;
75191;SDS011;63771;52.580;9.734;2023-06-14T01:59:45;3.33;;;3.03;;
75191;SDS011;63771;52.580;9.734;2023-06-14T02:02:13;2.63;;;2.42;;
75191;SDS011;63771;52.580;9.734;2023-06-14T02:04:39;4.53;;;2.78;;
75191;SDS011;63771;52.580;9.734;2023-06-14T02:07:05;3.80;;;3.40;;
75191;SDS011;63771;52.580;9.734;2023-06-14T02:09:30;3.40;;;3.10;;
75191;SDS011;63771;52.580;9.734;2023-06-14T02:11:55;5.43;;;3.13;;
75191;SDS011;63771;52.580;9.734;2023-06-14T02:14:21;3.50;;;2.55;;
75191;SDS011;63771;52.580;9.734;2023-06-14T02:16:46;3.67;;;2.33;;
75191;SDS011;63771;52.580;9.734;2023-06-14T02:19:14;4.18;;;2.72;;
75191;SDS011;63771;52.580;9.734;2023-06-14T02:21:43;3.00;;;2.80;;
75191;SDS011;63771;52.580;9.734;2023-06-14T02:24:08;4.07;;;2.53;;
75191;SDS011;63771;52.580;9.734;2023-06-14T02:26:34;3.80;;;3.33;;
75191;SDS011;63771;52.580;9.734;2023-06-14T02:29:00;2.73;;;2.53;;
75191;SDS011;63771;52.580;9.734;2023-06-14T02:31:25;3.05;;;2.83;;
75191;SDS011;63771;52.580;9.734;2023-06-14T02:33:52;3.15;;;2.85;;
75191;SDS011;63771;52.580;9.734;2023-06-14T02:36:17;2.85;;;2.65;;
75191;SDS011;63771;52.580;9.734;2023-06-14T02:38:43;2.67;;;2.33;;
75191;SDS011;63771;52.580;9.734;2023-06-14T02:41:08;4.77;;;2.93;;
75191;SDS011;63771;52.580;9.734;2023-06-14T02:43:33;3.30;;;2.87;;
75191;SDS011;63771;52.580;9.734;2023-06-14T02:45:59;5.00;;;3.40;;
75191;SDS011;63771;52.580;9.734;2023-06-14T02:48:24;3.35;;;3.10;;
75191;SDS011;63771;52.580;9.734;2023-06-14T02:50:49;3.50;;;3.20;;
75191;SDS011;63771;52.580;9.734;2023-06-14T02:53:15;3.25;;;2.72;;
75191;SDS011;63771;52.580;9.734;2023-06-14T02:55:40;3.58;;;2.72;;
75191;SDS011;63771;52.580;9.734;2023-06-14T02:58:06;3.13;;;2.90;;
75191;SDS011;63771;52.580;9.734;2023-06-14T03:00:31;4.10;;;3.60;;
75191;SDS011;63771;52.580;9.734;2023-06-14T03:02:56;3.28;;;2.97;;
75191;SDS011;63771;52.580;9.734;2023-06-14T03:05:22;3.13;;;2.92;;
75191;SDS011;63771;52.580;9.734;2023-06-14T03:07:48;3.63;;;3.37;;
75191;SDS011;63771;52.580;9.734;2023-06-14T03:10:15;3.55;;;2.80;;
75191;SDS011;63771;52.580;9.734;2023-06-14T03:12:41;6.03;;;3.53;;
75191;SDS011;63771;52.580;9.734;2023-06-14T03:15:06;3.55;;;3.25;;
75191;SDS011;63771;52.580;9.734;2023-06-14T03:17:32;3.63;;;3.33;;
75191;SDS011;63771;52.580;9.734;2023-06-14T03:20:01;3.53;;;3.20;;
75191;SDS011;63771;52.580;9.734;2023-06-14T03:22:27;3.78;;;3.42;;
75191;SDS011;63771;52.580;9.734;2023-06-14T03:24:53;4.68;;;3.05;;
75191;SDS011;63771;52.580;9.734;2023-06-14T03:27:19;6.07;;;3.38;;
75191;SDS011;63771;52.580;9.734;2023-06-14T03:29:44;6.30;;;3.53;;
75191;SDS011;63771;52.580;9.734;2023-06-14T03:32:09;3.20;;;3.00;;
75191;SDS011;63771;52.580;9.734;2023-06-14T03:34:35;4.10;;;3.70;;
75191;SDS011;63771;52.580;9.734;2023-06-14T03:37:00;6.22;;;3.22;;
75191;SDS011;63771;52.580;9.734;2023-06-14T03:39:26;3.70;;;3.38;;
75191;SDS011;63771;52.580;9.734;2023-06-14T03:41:51;3.30;;;3.10;;
75191;SDS011;63771;52.580;9.734;2023-06-14T03:44:17;5.73;;;3.47;;
75191;SDS011;63771;52.580;9.734;2023-06-14T03:46:43;3.88;;;3.50;;
75191;SDS011;63771;52.580;9.734;2023-06-14T03:49:10;5.38;;;3.50;;
75191;SDS011;63771;52.580;9.734;2023-06-14T03:51:36;4.53;;;3.40;;
75191;SDS011;63771;52.580;9.734;2023-06-14T03:54:01;5.27;;;3.40;;
75191;SDS011;63771;52.580;9.734;2023-06-14T03:56:26;3.63;;;3.33;;
75191;SDS011;63771;52.580;9.734;2023-06-14T03:58:52;3.67;;;3.47;;
75191;SDS011;63771;52.580;9.734;2023-06-14T04:01:17;3.30;;;3.03;;
75191;SDS011;63771;52.580;9.734;2023-06-14T04:03:43;3.60;;;3.40;;
75191;SDS011;63771;52.580;9.734;2023-06-14T04:06:08;5.35;;;3.22;;
75191;SDS011;63771;52.580;9.734;2023-06-14T04:08:33;3.28;;;3.08;;
75191;SDS011;63771;52.580;9.734;2023-06-14T04:11:00;3.88;;;3.55;;
75191;SDS011;63771;52.580;9.734;2023-06-14T04:13:25;3.90;;;3.33;;
75191;SDS011;63771;52.580;9.734;2023-06-14T04:15:50;4.32;;;3.03;;
75191;SDS011;63771;52.580;9.734;2023-06-14T04:18:16;3.08;;;2.88;;
75191;SDS011;63771;52.580;9.734;2023-06-14T04:20:42;3.63;;;3.33;;
75191;SDS011;63771;52.580;9.734;2023-06-14T04:23:16;3.80;;;3.58;;
75191;SDS011;63771;52.580;9.734;2023-06-14T04:25:45;5.30;;;3.70;;
75191;SDS011;63771;52.580;9.734;2023-06-14T04:28:13;3.33;;;2.92;;
75191;SDS011;63771;52.580;9.734;2023-06-14T04:30:43;5.20;;;3.50;;
75191;SDS011;63771;52.580;9.734;2023-06-14T04:33:09;4.75;;;3.72;;
75191;SDS011;63771;52.580;9.734;2023-06-14T04:35:36;4.72;;;3.75;;
75191;SDS011;63771;52.580;9.734;2023-06-14T04:38:02;3.15;;;2.85;;
75191;SDS011;63771;52.580;9.734;2023-06-14T04:40:30;4.05;;;3.08;;
75191;SDS011;63771;52.580;9.734;2023-06-14T04:42:56;4.40;;;2.95;;
75191;SDS011;63771;52.580;9.734;2023-06-14T04:45:22;3.15;;;2.72;;
75191;SDS011;63771;52.580;9.734;2023-06-14T04:47:48;7.70;;;3.28;;
75191;SDS011;63771;52.580;9.734;2023-06-14T04:50:13;5.15;;;2.80;;
75191;SDS011;63771;52.580;9.734;2023-06-14T04:52:39;3.97;;;3.55;;
75191;SDS011;63771;52.580;9.734;2023-06-14T04:55:05;3.78;;;3.47;;
75191;SDS011;63771;52.580;9.734;2023-06-14T04:57:31;3.50;;;3.30;;
75191;SDS011;63771;52.580;9.734;2023-06-14T04:59:57;4.13;;;3.65;;
75191;SDS011;63771;52.580;9.734;2023-06-14T05:02:23;3.78;;;2.85;;
75191;SDS011;63771;52.580;9.734;2023-06-14T05:04:49;3.95;;;3.47;;
75191;SDS011;63771;52.580;9.734;2023-06-14T05:07:15;3.65;;;3.35;;
75191;SDS011;63771;52.580;9.734;2023-06-14T05:09:40;3.40;;;3.05;;
75191;SDS011;63771;52.580;9.734;2023-06-14T05:12:06;3.80;;;3.50;;
75191;SDS011;63771;52.580;9.734;2023-06-14T05:14:35;3.55;;;2.65;;
75191;SDS011;63771;52.580;9.734;2023-06-14T05:17:01;3.70;;;3.30;;
75191;SDS011;63771;52.580;9.734;2023-06-14T05:19:27;4.68;;;3.47;;
75191;SDS011;63771;52.580;9.734;2023-06-14T05:21:53;6.07;;;2.97;;
75191;SDS011;63771;52.580;9.734;2023-06-14T05:24:18;3.83;;;3.53;;
75191;SDS011;63771;52.580;9.734;2023-06-14T05:26:44;4.30;;;3.42;;
75191;SDS011;63771;52.580;9.734;2023-06-14T05:29:10;3.40;;;3.20;;
75191;SDS011;63771;52.580;9.734;2023-06-14T05:31:36;3.58;;;2.53;;
75191;SDS011;63771;52.580;9.734;2023-06-14T05:34:01;4.28;;;3.03;;
75191;SDS011;63771;52.580;9.734;2023-06-14T05:36:28;4.13;;;2.90;;
75191;SDS011;63771;52.580;9.734;2023-06-14T05:38:53;3.20;;;3.00;;
75191;SDS011;63771;52.580;9.734;2023-06-14T05:41:23;3.65;;;3.00;;
75191;SDS011;63771;52.580;9.734;2023-06-14T05:43:53;3.00;;;2.70;;
75191;SDS011;63771;52.580;9.734;2023-06-14T05:46:19;3.53;;;2.75;;
75191;SDS011;63771;52.580;9.734;2023-06-14T05:51:12;2.42;;;2.33;;
75191;SDS011;63771;52.580;9.734;2023-06-14T05:53:38;3.08;;;2.78;;
75191;SDS011;63771;52.580;9.734;2023-06-14T05:56:03;2.63;;;2.50;;
75191;SDS011;63771;52.580;9.734;2023-06-14T05:58:28;2.33;;;2.13;;
75191;SDS011;63771;52.580;9.734;2023-06-14T06:00:54;2.33;;;2.03;;
75191;SDS011;63771;52.580;9.734;2023-06-14T06:03:19;3.57;;;2.53;;
75191;SDS011;63771;52.580;9.734;2023-06-14T06:05:46;2.78;;;2.58;;
75191;SDS011;63771;52.580;9.734;2023-06-14T06:08:11;3.45;;;2.20;;
75191;SDS011;63771;52.580;9.734;2023-06-14T06:10:36;2.22;;;2.13;;
75191;SDS011;63771;52.580;9.734;2023-06-14T06:13:02;2.42;;;2.22;;
75191;SDS011;63771;52.580;9.734;2023-06-14T06:15:27;2.33;;;2.13;;
75191;SDS011;63771;52.580;9.734;2023-06-14T06:17:52;5.30;;;2.47;;
75191;SDS011;63771;52.580;9.734;2023-06-14T06:20:18;2.30;;;2.10;;
75191;SDS011;63771;52.580;9.734;2023-06-14T06:22:43;4.13;;;2.00;;
75191;SDS011;63771;52.580;9.734;2023-06-14T06:25:08;2.53;;;2.30;;
75191;SDS011;63771;52.580;9.734;2023-06-14T06:27:35;2.55;;;2.35;;
75191;SDS011;63771;52.580;9.734;2023-06-14T06:30:02;2.40;;;2.20;;
75191;SDS011;63771;52.580;9.734;2023-06-14T06:32:28;3.08;;;1.83;;
75191;SDS011;63771;52.580;9.734;2023-06-14T06:34:53;2.60;;;2.40;;
75191;SDS011;63771;52.580;9.734;2023-06-14T06:37:19;2.28;;;2.08;;
75191;SDS011;63771;52.580;9.734;2023-06-14T06:39:44;2.30;;;2.15;;
75191;SDS011;63771;52.580;9.734;2023-06-14T06:42:10;4.00;;;2.23;;
75191;SDS011;63771;52.580;9.734;2023-06-14T06:44:35;2.22;;;2.08;;
75191;SDS011;63771;52.580;9.734;2023-06-14T06:47:01;2.15;;;1.92;;
75191;SDS011;63771;52.580;9.734;2023-06-14T06:49:27;2.13;;;2.03;;
75191;SDS011;63771;52.580;9.734;2023-06-14T06:51:59;3.05;;;2.28;;
75191;SDS011;63771;52.580;9.734;2023-06-14T06:54:27;4.47;;;2.30;;
75191;SDS011;63771;52.580;9.734;2023-06-14T06:56:53;3.45;;;2.05;;
75191;SDS011;63771;52.580;9.734;2023-06-14T06:59:18;4.03;;;1.88;;
75191;SDS011;63771;52.580;9.734;2023-06-14T07:01:44;2.07;;;1.97;;
75191;SDS011;63771;52.580;9.734;2023-06-14T07:04:09;2.33;;;2.17;;
75191;SDS011;63771;52.580;9.734;2023-06-14T07:06:34;2.73;;;2.53;;
75191;SDS011;63771;52.580;9.734;2023-06-14T07:09:00;2.40;;;2.05;;
75191;SDS011;63771;52.580;9.734;2023-06-14T07:11:26;1.98;;;1.85;;
75191;SDS011;63771;52.580;9.734;2023-06-14T07:13:52;2.75;;;2.05;;
75191;SDS011;63771;52.580;9.734;2023-06-14T07:16:17;2.10;;;2.00;;
75191;SDS011;63771;52.580;9.734;2023-06-14T07:18:42;2.60;;;2.10;;
75191;SDS011;63771;52.580;9.734;2023-06-14T07:21:08;1.92;;;1.83;;
75191;SDS011;63771;52.580;9.734;2023-06-14T07:23:34;2.13;;;1.70;;
75191;SDS011;63771;52.580;9.734;2023-06-14T07:25:59;2.10;;;2.00;;
75191;SDS011;63771;52.580;9.734;2023-06-14T07:28:24;2.30;;;2.20;;
75191;SDS011;63771;52.580;9.734;2023-06-14T07:30:50;3.23;;;2.40;;
75191;SDS011;63771;52.580;9.734;2023-06-14T07:33:15;2.28;;;2.08;;
75191;SDS011;63771;52.580;9.734;2023-06-14T07:35:40;3.40;;;2.50;;
75191;SDS011;63771;52.580;9.734;2023-06-14T07:38:06;3.67;;;2.38;;
75191;SDS011;63771;52.580;9.734;2023-06-14T07:40:31;2.60;;;2.10;;
75191;SDS011;63771;52.580;9.734;2023-06-14T07:42:56;2.40;;;2.20;;
75191;SDS011;63771;52.580;9.734;2023-06-14T07:45:22;2.10;;;2.00;;
75191;SDS011;63771;52.580;9.734;2023-06-14T07:47:47;4.20;;;2.30;;
75191;SDS011;63771;52.580;9.734;2023-06-14T07:50:12;2.40;;;2.20;;
75191;SDS011;63771;52.580;9.734;2023-06-14T07:52:38;2.22;;;2.13;;
75191;SDS011;63771;52.580;9.734;2023-06-14T07:55:04;2.88;;;2.10;;
75191;SDS011;63771;52.580;9.734;2023-06-14T07:57:30;2.13;;;1.92;;
75191;SDS011;63771;52.580;9.734;2023-06-14T07:59:55;3.27;;;1.90;;
75191;SDS011;63771;52.580;9.734;2023-06-14T08:02:21;2.20;;;2.00;;
75191;SDS011;63771;52.580;9.734;2023-06-14T08:04:46;2.07;;;1.97;;
75191;SDS011;63771;52.580;9.734;2023-06-14T08:07:13;2.13;;;2.03;;
75191;SDS011;63771;52.580;9.734;2023-06-14T08:09:38;2.15;;;1.90;;
75191;SDS011;63771;52.580;9.734;2023-06-14T08:12:04;1.93;;;1.77;;
75191;SDS011;63771;52.580;9.734;2023-06-14T08:14:32;3.30;;;2.08;;
75191;SDS011;63771;52.580;9.734;2023-06-14T08:16:58;2.50;;;2.30;;
75191;SDS011;63771;52.580;9.734;2023-06-14T08:19:23;4.00;;;2.30;;
75191;SDS011;63771;52.580;9.734;2023-06-14T08:21:49;2.13;;;2.03;;
75191;SDS011;63771;52.580;9.734;2023-06-14T08:24:15;4.45;;;1.98;;
75191;SDS011;63771;52.580;9.734;2023-06-14T08:26:40;1.70;;;1.60;;
75191;SDS011;63771;52.580;9.734;2023-06-14T08:29:05;3.05;;;2.15;;
75191;SDS011;63771;52.580;9.734;2023-06-14T08:31:34;5.55;;;2.70;;
75191;SDS011;63771;52.580;9.734;2023-06-14T08:33:59;2.22;;;2.03;;
75191;SDS011;63771;52.580;9.734;2023-06-14T08:36:25;2.58;;;1.85;;
75191;SDS011;63771;52.580;9.734;2023-06-14T08:38:50;2.83;;;2.20;;
75191;SDS011;63771;52.580;9.734;2023-06-14T08:41:20;2.88;;;2.65;;
75191;SDS011;63771;52.580;9.734;2023-06-14T08:43:47;3.08;;;1.70;;
75191;SDS011;63771;52.580;9.734;2023-06-14T08:46:12;4.05;;;2.38;;
75191;SDS011;63771;52.580;9.734;2023-06-14T08:48:41;2.20;;;2.00;;
75191;SDS011;63771;52.580;9.734;2023-06-14T08:51:08;5.10;;;1.80;;
75191;SDS011;63771;52.580;9.734;2023-06-14T08:53:35;1.95;;;1.85;;
75191;SDS011;63771;52.580;9.734;2023-06-14T08:56:07;2.53;;;2.33;;
75191;SDS011;63771;52.580;9.734;2023-06-14T08:58:38;2.70;;;2.42;;
75191;SDS011;63771;52.580;9.734;2023-06-14T09:01:08;2.10;;;1.90;;
75191;SDS011;63771;52.580;9.734;2023-06-14T09:03:37;2.65;;;2.45;;
75191;SDS011;63771;52.580;9.734;2023-06-14T09:06:05;2.50;;;2.30;;
75191;SDS011;63771;52.580;9.734;2023-06-14T09:08:33;2.65;;;2.10;;
75191;SDS011;63771;52.580;9.734;2023-06-14T09:11:01;3.08;;;2.88;;
75191;SDS011;63771;52.580;9.734;2023-06-14T09:13:26;2.15;;;1.95;;
75191;SDS011;63771;52.580;9.734;2023-06-14T09:15:52;5.47;;;2.30;;
75191;SDS011;63771;52.580;9.734;2023-06-14T09:18:17;2.33;;;2.22;;
75191;SDS011;63771;52.580;9.734;2023-06-14T09:20:45;2.58;;;2.38;;
75191;SDS011;63771;52.580;9.734;2023-06-14T09:23:12;2.50;;;2.30;;
75191;SDS011;63771;52.580;9.734;2023-06-14T09:25:41;2.40;;;2.20;;
75191;SDS011;63771;52.580;9.734;2023-06-14T09:28:08;3.45;;;2.65;;
75191;SDS011;63771;52.580;9.734;2023-06-14T09:30:33;2.70;;;2.50;;
75191;SDS011;63771;52.580;9.734;2023-06-14T09:32:59;3.35;;;2.30;;
75191;SDS011;63771;52.580;9.734;2023-06-14T09:35:24;3.47;;;2.60;;
75191;SDS011;63771;52.580;9.734;2023-06-14T09:37:50;3.22;;;2.40;;
75191;SDS011;63771;52.580;9.734;2023-06-14T09:40:20;3.55;;;2.40;;
75191;SDS011;63771;52.580;9.734;2023-06-14T09:42:45;2.60;;;2.40;;
75191;SDS011;63771;52.580;9.734;2023-06-14T09:45:11;4.07;;;2.30;;
75191;SDS011;63771;52.580;9.734;2023-06-14T09:47:38;3.92;;;2.30;;
75191;SDS011;63771;52.580;9.734;2023-06-14T09:50:04;4.68;;;2.17;;
75191;SDS011;63771;52.580;9.734;2023-06-14T09:52:29;2.42;;;2.28;;
75191;SDS011;63771;52.580;9.734;2023-06-14T09:54:56;2.85;;;2.60;;
75191;SDS011;63771;52.580;9.734;2023-06-14T09:57:24;4.70;;;2.53;;
75191;SDS011;63771;52.580;9.734;2023-06-14T09:59:56;3.40;;;2.42;;
75191;SDS011;63771;52.580;9.734;2023-06-14T10:02:26;2.60;;;2.40;;
75191;SDS011;63771;52.580;9.734;2023-06-14T10:05:15;2.95;;;2.17;;
75191;SDS011;63771;52.580;9.734;2023-06-14T10:10:09;5.13;;;2.45;;
75191;SDS011;63771;52.580;9.734;2023-06-14T10:12:35;2.70;;;2.50;;
75191;SDS011;63771;52.580;9.734;2023-06-14T10:15:01;2.80;;;2.60;;
75191;SDS011;63771;52.580;9.734;2023-06-14T10:17:33;3.03;;;2.72;;
75191;SDS011;63771;52.580;9.734;2023-06-14T10:20:10;2.83;;;2.72;;
75191;SDS011;63771;52.580;9.734;2023-06-14T10:22:47;4.35;;;2.63;;
75191;SDS011;63771;52.580;9.734;2023-06-14T10:25:26;2.65;;;2.30;;
75191;SDS011;63771;52.580;9.734;2023-06-14T10:27:56;5.93;;;2.67;;
75191;SDS011;63771;52.580;9.734;2023-06-14T10:30:27;3.88;;;2.53;;
75191;SDS011;63771;52.580;9.734;2023-06-14T10:33:08;5.03;;;3.00;;
75191;SDS011;63771;52.580;9.734;2023-06-14T10:35:34;2.60;;;2.40;;
75191;SDS011;63771;52.580;9.734;2023-06-14T10:38:06;3.60;;;3.30;;
75191;SDS011;63771;52.580;9.734;2023-06-14T10:40:36;2.78;;;2.40;;
75191;SDS011;63771;52.580;9.734;2023-06-14T10:43:20;6.63;;;2.53;;
75191;SDS011;63771;52.580;9.734;2023-06-14T10:48:42;3.05;;;2.85;;
75191;SDS011;63771;52.580;9.734;2023-06-14T10:51:15;2.83;;;2.63;;
75191;SDS011;63771;52.580;9.734;2023-06-14T10:53:49;3.50;;;2.50;;
75191;SDS011;63771;52.580;9.734;2023-06-14T10:56:28;2.65;;;2.45;;
75191;SDS011;63771;52.580;9.734;2023-06-14T10:58:56;4.40;;;2.53;;
75191;SDS011;63771;52.580;9.734;2023-06-14T11:01:32;2.97;;;2.78;;
75191;SDS011;63771;52.580;9.734;2023-06-14T11:04:08;3.55;;;3.25;;
75191;SDS011;63771;52.580;9.734;2023-06-14T11:06:47;2.67;;;2.47;;
75191;SDS011;63771;52.580;9.734;2023-06-14T11:12:16;3.70;;;3.13;;
75191;SDS011;63771;52.580;9.734;2023-06-14T11:14:45;3.75;;;3.45;;
75191;SDS011;63771;52.580;9.734;2023-06-14T11:17:11;4.45;;;4.00;;
75191;SDS011;63771;52.580;9.734;2023-06-14T11:19:37;3.70;;;2.70;;
75191;SDS011;63771;52.580;9.734;2023-06-14T11:22:02;4.27;;;3.20;;
75191;SDS011;63771;52.580;9.734;2023-06-14T11:24:28;5.00;;;3.13;;
75191;SDS011;63771;52.580;9.734;2023-06-14T11:26:53;3.43;;;3.00;;
75191;SDS011;63771;52.580;9.734;2023-06-14T11:29:21;7.47;;;3.35;;
75191;SDS011;63771;52.580;9.734;2023-06-14T11:31:47;5.65;;;3.38;;
75191;SDS011;63771;52.580;9.734;2023-06-14T11:34:12;5.23;;;3.43;;
75191;SDS011;63771;52.580;9.734;2023-06-14T11:36:38;3.22;;;3.00;;
75191;SDS011;63771;52.580;9.734;2023-06-14T11:39:05;3.53;;;3.10;;
75191;SDS011;63771;52.580;9.734;2023-06-14T11:41:36;4.78;;;3.05;;
75191;SDS011;63771;52.580;9.734;2023-06-14T11:44:09;3.28;;;3.08;;
75191;SDS011;63771;52.580;9.734;2023-06-14T11:46:35;5.00;;;2.85;;
75191;SDS011;63771;52.580;9.734;2023-06-14T11:49:01;3.70;;;3.40;;
75191;SDS011;63771;52.580;9.734;2023-06-14T11:53:54;3.30;;;3.00;;
75191;SDS011;63771;52.580;9.734;2023-06-14T11:56:19;3.40;;;3.10;;
75191;SDS011;63771;52.580;9.734;2023-06-14T11:58:45;5.10;;;3.55;;
75191;SDS011;63771;52.580;9.734;2023-06-14T12:01:14;3.63;;;2.65;;
75191;SDS011;63771;52.580;9.734;2023-06-14T12:03:49;2.85;;;2.55;;
75191;SDS011;63771;52.580;9.734;2023-06-14T12:06:15;5.88;;;2.92;;
75191;SDS011;63771;52.580;9.734;2023-06-14T12:08:43;3.25;;;3.05;;
75191;SDS011;63771;52.580;9.734;2023-06-14T12:11:10;4.63;;;2.80;;
75191;SDS011;63771;52.580;9.734;2023-06-14T12:13:38;4.10;;;2.72;;
75191;SDS011;63771;52.580;9.734;2023-06-14T12:16:11;6.53;;;3.45;;
75191;SDS011;63771;52.580;9.734;2023-06-14T12:18:38;3.47;;;2.67;;
75191;SDS011;63771;52.580;9.734;2023-06-14T12:21:05;2.85;;;2.70;;
75191;SDS011;63771;52.580;9.734;2023-06-14T12:23:44;3.35;;;3.05;;
75191;SDS011;63771;52.580;9.734;2023-06-14T12:26:12;3.65;;;3.40;;
75191;SDS011;63771;52.580;9.734;2023-06-14T12:28:39;3.20;;;2.90;;
75191;SDS011;63771;52.580;9.734;2023-06-14T12:31:05;4.28;;;2.70;;
75191;SDS011;63771;52.580;9.734;2023-06-14T12:33:31;5.95;;;2.80;;
75191;SDS011;63771;52.580;9.734;2023-06-14T12:35:56;6.70;;;3.13;;
75191;SDS011;63771;52.580;9.734;2023-06-14T12:38:24;3.45;;;2.88;;
75191;SDS011;63771;52.580;9.734;2023-06-14T12:40:49;4.85;;;3.40;;
75191;SDS011;63771;52.580;9.734;2023-06-14T12:43:14;3.78;;;2.67;;
75191;SDS011;63771;52.580;9.734;2023-06-14T12:45:40;3.20;;;3.00;;
75191;SDS011;63771;52.580;9.734;2023-06-14T12:48:05;2.83;;;2.60;;
75191;SDS011;63771;52.580;9.734;2023-06-14T12:50:30;3.13;;;2.83;;
75191;SDS011;63771;52.580;9.734;2023-06-14T12:52:56;3.97;;;2.70;;
75191;SDS011;63771;52.580;9.734;2023-06-14T12:55:21;3.33;;;3.00;;
75191;SDS011;63771;52.580;9.734;2023-06-14T12:57:46;3.73;;;3.43;;
75191;SDS011;63771;52.580;9.734;2023-06-14T13:00:14;3.83;;;3.10;;
75191;SDS011;63771;52.580;9.734;2023-06-14T13:02:40;6.45;;;3.00;;
75191;SDS011;63771;52.580;9.734;2023-06-14T13:05:05;7.77;;;3.80;;
75191;SDS011;63771;52.580;9.734;2023-06-14T13:07:31;2.92;;;2.55;;
75191;SDS011;63771;52.580;9.734;2023-06-14T13:09:56;3.70;;;2.88;;
75191;SDS011;63771;52.580;9.734;2023-06-14T13:12:21;2.60;;;2.50;;
75191;SDS011;63771;52.580;9.734;2023-06-14T13:14:47;3.20;;;3.00;;
75191;SDS011;63771;52.580;9.734;2023-06-14T13:17:12;3.10;;;2.90;;
75191;SDS011;63771;52.580;9.734;2023-06-14T13:19:37;2.97;;;2.77;;
75191;SDS011;63771;52.580;9.734;2023-06-14T13:22:03;4.70;;;3.00;;
75191;SDS011;63771;52.580;9.734;2023-06-14T13:24:28;5.53;;;2.95;;
75191;SDS011;63771;52.580;9.734;2023-06-14T13:26:54;3.00;;;2.80;;
75191;SDS011;63771;52.580;9.734;2023-06-14T13:29:21;5.30;;;3.00;;
75191;SDS011;63771;52.580;9.734;2023-06-14T13:31:46;4.25;;;3.15;;
75191;SDS011;63771;52.580;9.734;2023-06-14T13:34:11;3.30;;;3.00;;
75191;SDS011;63771;52.580;9.734;2023-06-14T13:36:37;3.05;;;2.83;;
75191;SDS011;63771;52.580;9.734;2023-06-14T13:39:02;5.75;;;3.20;;
75191;SDS011;63771;52.580;9.734;2023-06-14T13:41:28;4.57;;;3.23;;
75191;SDS011;63771;52.580;9.734;2023-06-14T13:43:57;4.60;;;2.90;;
75191;SDS011;63771;52.580;9.734;2023-06-14T13:46:23;4.32;;;3.40;;
75191;SDS011;63771;52.580;9.734;2023-06-14T13:48:48;5.95;;;3.05;;
75191;SDS011;63771;52.580;9.734;2023-06-14T13:51:14;6.50;;;3.37;;
75191;SDS011;63771;52.580;9.734;2023-06-14T13:53:39;14.40;;;5.77;;
75191;SDS011;63771;52.580;9.734;2023-06-14T13:56:04;26.03;;;6.10;;
75191;SDS011;63771;52.580;9.734;2023-06-14T13:58:30;14.82;;;4.70;;
75191;SDS011;63771;52.580;9.734;2023-06-14T14:00:55;10.73;;;4.90;;
75191;SDS011;63771;52.580;9.734;2023-06-14T14:03:20;14.70;;;4.97;;
75191;SDS011;63771;52.580;9.734;2023-06-14T14:05:46;8.50;;;4.18;;
75191;SDS011;63771;52.580;9.734;2023-06-14T14:08:11;17.17;;;6.60;;
75191;SDS011;63771;52.580;9.734;2023-06-14T14:10:37;26.60;;;6.83;;
75191;SDS011;63771;52.580;9.734;2023-06-14T14:13:02;63.93;;;14.60;;
75191;SDS011;63771;52.580;9.734;2023-06-14T14:15:27;17.87;;;5.67;;
75191;SDS011;63771;52.580;9.734;2023-06-14T14:17:53;8.10;;;3.83;;
75191;SDS011;63771;52.580;9.734;2023-06-14T14:20:19;28.92;;;7.35;;
75191;SDS011;63771;52.580;9.734;2023-06-14T14:22:44;12.40;;;5.22;;
75191;SDS011;63771;52.580;9.734;2023-06-14T14:25:10;56.40;;;10.70;;
75191;SDS011;63771;52.580;9.734;2023-06-14T14:27:38;56.67;;;11.25;;
75191;SDS011;63771;52.580;9.734;2023-06-14T14:30:04;13.77;;;5.80;;
75191;SDS011;63771;52.580;9.734;2023-06-14T14:32:30;10.45;;;3.70;;
75191;SDS011;63771;52.580;9.734;2023-06-14T14:34:56;6.70;;;3.67;;
75191;SDS011;63771;52.580;9.734;2023-06-14T14:37:21;5.10;;;3.43;;
75191;SDS011;63771;52.580;9.734;2023-06-14T14:39:46;9.30;;;3.40;;
75191;SDS011;63771;52.580;9.734;2023-06-14T14:42:12;6.75;;;3.55;;
75191;SDS011;63771;52.580;9.734;2023-06-14T14:44:38;3.40;;;3.10;;
75191;SDS011;63771;52.580;9.734;2023-06-14T14:47:04;6.72;;;3.80;;
75191;SDS011;63771;52.580;9.734;2023-06-14T14:49:30;3.35;;;3.10;;
75191;SDS011;63771;52.580;9.734;2023-06-14T14:51:56;3.72;;;3.42;;
75191;SDS011;63771;52.580;9.734;2023-06-14T14:54:21;3.75;;;3.30;;
75191;SDS011;63771;52.580;9.734;2023-06-14T14:56:47;5.22;;;3.30;;
75191;SDS011;63771;52.580;9.734;2023-06-14T14:59:12;6.15;;;2.85;;
75191;SDS011;63771;52.580;9.734;2023-06-14T15:01:38;4.47;;;3.00;;
75191;SDS011;63771;52.580;9.734;2023-06-14T15:04:03;3.83;;;3.53;;
75191;SDS011;63771;52.580;9.734;2023-06-14T15:06:28;3.75;;;3.45;;
75191;SDS011;63771;52.580;9.734;2023-06-14T15:08:54;3.47;;;3.25;;
75191;SDS011;63771;52.580;9.734;2023-06-14T15:11:19;4.60;;;3.50;;